Time;durP1;ratioP1;P1;durP2;ratioP2;P2;SDS_P1;SDS_P2;PMS_P1;PMS_P2;Temp;Humidity;BMP_temperature;BMP_pressure;BME280_temperature;BME280_humidity;BME280_pressure;Samples;Min_cycle;Max_cycle;Signal;HPM_P1;HPM_P2
2022/05/04 00:01:36;;;;;;;10.85;9.10;;;;;;;;;;10460301;28;20495;-79
2022/05/04 00:06:39;;;;;;;10.10;9.10;;;;;;;;;;10460883;28;20507;-79
2022/05/04 00:11:42;;;;;;;10.57;9.13;;;;;;;;;;10462854;28;20424;-80
2022/05/04 00:16:44;;;;;;;11.65;8.80;;;;;;;;;;10461220;28;20418;-80
2022/05/04 00:21:47;;;;;;;10.05;8.88;;;;;;;;;;10461732;28;20442;-80
2022/05/04 00:26:49;;;;;;;10.83;9.57;;;;;;;;;;10460997;28;20764;-81
2022/05/04 00:31:51;;;;;;;10.80;9.70;;;;;;;;;;10461212;28;20889;-80
2022/05/04 00:36:54;;;;;;;11.30;9.75;;;;;;;;;;10461319;28;20398;-80
2022/05/04 00:42:07;;;;;;;13.83;10.17;;;;;;;;;;10460434;28;20424;-79
2022/05/04 00:47:09;;;;;;;11.18;9.98;;;;;;;;;;10460675;28;20882;-80
2022/05/04 00:52:16;;;;;;;11.48;10.20;;;;;;;;;;10459297;28;20527;-80
2022/05/04 00:58:54;;;;;;;11.63;9.95;;;;;;;;;;10460148;28;20405;-80
2022/05/04 01:02:43;;;;;;;11.18;9.95;;;;;;;;;;10462875;28;20679;-79
2022/05/04 01:07:47;;;;;;;10.98;9.77;;;;;;;;;;10459203;28;20405;-80
2022/05/04 01:12:50;;;;;;;12.10;10.02;;;;;;;;;;10459166;28;20406;-79
2022/05/04 01:17:52;;;;;;;11.60;10.35;;;;;;;;;;10459442;28;20409;-80
2022/05/04 01:22:55;;;;;;;11.52;10.32;;;;;;;;;;10459124;28;20404;-79
2022/05/04 01:27:57;;;;;;;10.63;9.47;;;;;;;;;;10459195;28;20406;-80
2022/05/04 01:33:00;;;;;;;12.02;10.25;;;;;;;;;;10459112;28;20402;-81
2022/05/04 01:38:03;;;;;;;11.43;10.23;;;;;;;;;;10458864;28;20397;-80
2022/05/04 01:43:05;;;;;;;11.05;9.95;;;;;;;;;;10458874;28;20718;-80
2022/05/04 01:48:07;;;;;;;11.80;10.40;;;;;;;;;;10458578;28;20485;-80
2022/05/04 01:53:11;;;;;;;11.27;10.10;;;;;;;;;;10458560;28;20426;-80
2022/05/04 01:58:13;;;;;;;11.70;10.50;;;;;;;;;;10458697;28;20399;-80
2022/05/04 02:03:14;;;;;;;10.65;9.55;;;;;;;;;;10457793;28;20792;-80
2022/05/04 02:08:18;;;;;;;10.97;9.67;;;;;;;;;;10458341;28;20483;-80
2022/05/04 02:13:20;;;;;;;10.57;9.65;;;;;;;;;;10458538;28;20797;-80
2022/05/04 02:18:22;;;;;;;10.87;9.77;;;;;;;;;;10459510;28;20632;-80
2022/05/04 02:23:25;;;;;;;10.65;9.55;;;;;;;;;;10466294;28;20526;-80
2022/05/04 02:28:27;;;;;;;11.70;10.35;;;;;;;;;;10466321;28;20402;-80
2022/05/04 02:33:29;;;;;;;11.32;10.20;;;;;;;;;;10466056;28;20406;-80
2022/05/04 02:38:32;;;;;;;11.45;10.30;;;;;;;;;;10465288;28;20423;-80
2022/05/04 02:43:34;;;;;;;12.82;11.48;;;;;;;;;;10465149;28;20502;-80
2022/05/04 02:48:36;;;;;;;12.87;11.43;;;;;;;;;;10465117;28;20407;-80
2022/05/04 02:53:39;;;;;;;13.80;12.20;;;;;;;;;;10464634;28;20405;-80
2022/05/04 02:58:41;;;;;;;14.57;12.68;;;;;;;;;;10464570;28;20402;-80
2022/05/04 03:03:42;;;;;;;14.38;12.88;;;;;;;;;;10464015;28;20853;-79
2022/05/04 03:08:45;;;;;;;14.97;13.10;;;;;;;;;;10464852;28;20408;-80
2022/05/04 03:13:47;;;;;;;15.68;13.65;;;;;;;;;;10464699;28;20410;-80
2022/05/04 03:18:49;;;;;;;15.85;13.50;;;;;;;;;;10464373;28;20406;-80
2022/05/04 03:23:52;;;;;;;14.88;13.15;;;;;;;;;;10464191;28;20425;-78
2022/05/04 03:28:55;;;;;;;15.20;12.93;;;;;;;;;;10449110;28;20554;-80
2022/05/04 03:33:56;;;;;;;14.27;12.87;;;;;;;;;;10449337;28;20479;-80
2022/05/04 03:39:01;;;;;;;13.40;12.00;;;;;;;;;;10461774;28;20744;-79
2022/05/04 03:44:02;;;;;;;12.80;11.50;;;;;;;;;;10463537;28;20522;-79
2022/05/04 03:49:04;;;;;;;12.65;10.10;;;;;;;;;;10463302;28;20808;-80
2022/05/04 03:54:08;;;;;;;13.00;10.30;;;;;;;;;;10463002;28;20980;-79
2022/05/04 03:59:10;;;;;;;12.38;10.10;;;;;;;;;;10461013;28;20749;-79
2022/05/04 04:04:12;;;;;;;11.63;9.98;;;;;;;;;;10462978;28;20493;-81
2022/05/04 04:09:16;;;;;;;12.30;9.83;;;;;;;;;;10459378;28;20482;-79
2022/05/04 04:14:19;;;;;;;13.20;10.02;;;;;;;;;;10460731;28;20430;-80
2022/05/04 04:19:21;;;;;;;11.90;9.85;;;;;;;;;;10462552;28;20479;-79
2022/05/04 04:24:24;;;;;;;12.15;9.43;;;;;;;;;;10462653;28;20447;-80
2022/05/04 04:29:26;;;;;;;10.13;9.13;;;;;;;;;;10459698;28;20416;-79
2022/05/04 04:34:28;;;;;;;14.52;11.38;;;;;;;;;;10462479;28;20511;-80
2022/05/04 04:39:31;;;;;;;12.87;11.57;;;;;;;;;;10459726;28;20404;-80
2022/05/04 04:44:32;;;;;;;12.32;11.00;;;;;;;;;;10453566;28;21450;-80
2022/05/04 04:49:34;;;;;;;12.63;11.15;;;;;;;;;;10454047;28;20482;-78
2022/05/04 04:54:37;;;;;;;11.68;10.38;;;;;;;;;;10446770;28;20518;-79
2022/05/04 04:59:39;;;;;;;12.95;11.00;;;;;;;;;;10445019;28;20399;-82
2022/05/04 05:04:41;;;;;;;12.63;10.87;;;;;;;;;;10445061;28;20438;-80
2022/05/04 05:09:44;;;;;;;13.60;11.90;;;;;;;;;;10443930;28;20919;-81
2022/05/04 05:20:06;;;;;;;15.13;12.05;;;;;;;;;;10440294;28;20380;-81
2022/05/04 05:25:10;;;;;;;13.50;11.63;;;;;;;;;;10442554;28;20771;-80
2022/05/04 05:30:14;;;;;;;12.90;10.87;;;;;;;;;;10445751;28;20394;-80
2022/05/04 05:35:15;;;;;;;12.23;10.93;;;;;;;;;;10445158;28;20409;-80
2022/05/04 05:40:18;;;;;;;13.53;10.70;;;;;;;;;;10448446;28;20404;-79
2022/05/04 05:45:20;;;;;;;12.13;10.43;;;;;;;;;;10445522;28;20428;-79
2022/05/04 05:50:22;;;;;;;14.02;10.60;;;;;;;;;;10453354;28;20399;-80
2022/05/04 05:55:26;;;;;;;13.45;10.10;;;;;;;;;;10463612;28;20398;-80
2022/05/04 06:00:27;;;;;;;12.23;9.83;;;;;;;;;;10468186;28;20480;-79
2022/05/04 06:05:29;;;;;;;13.68;9.73;;;;;;;;;;10470444;28;20429;-80
2022/05/04 06:10:33;;;;;;;11.33;8.90;;;;;;;;;;10470266;28;20457;-80
2022/05/04 06:15:34;;;;;;;10.53;8.10;;;;;;;;;;10469848;28;20404;-79
2022/05/04 06:20:36;;;;;;;11.32;9.85;;;;;;;;;;10471715;28;20398;-79
2022/05/04 06:25:41;;;;;;;11.30;9.83;;;;;;;;;;10470762;28;20463;-80
2022/05/04 06:35:58;;;;;;;12.00;9.57;;;;;;;;;;10440685;28;20388;-80
2022/05/04 06:41:05;;;;;;;12.67;9.23;;;;;;;;;;10471115;28;20436;-80
2022/05/04 06:46:06;;;;;;;11.50;9.38;;;;;;;;;;10470912;28;20758;-79
2022/05/04 06:51:08;;;;;;;14.38;8.95;;;;;;;;;;10470521;28;20765;-79
2022/05/04 06:56:11;;;;;;;12.15;8.70;;;;;;;;;;10470997;28;20508;-80
2022/05/04 07:01:13;;;;;;;12.95;8.70;;;;;;;;;;10471079;28;20400;-80
2022/05/04 07:06:15;;;;;;;13.67;8.60;;;;;;;;;;10464917;28;20506;-80
2022/05/04 07:11:18;;;;;;;11.98;8.27;;;;;;;;;;10464238;28;20846;-80
2022/05/04 07:16:20;;;;;;;15.00;9.00;;;;;;;;;;10463564;28;20404;-79
2022/05/04 07:21:22;;;;;;;10.55;8.88;;;;;;;;;;10464229;28;20396;-79
2022/05/04 07:26:25;;;;;;;12.07;8.02;;;;;;;;;;10463864;28;20424;-80
2022/05/04 07:31:27;;;;;;;11.68;7.85;;;;;;;;;;10462958;28;20485;-80
2022/05/04 07:36:29;;;;;;;6.55;5.10;;;;;;;;;;10462853;28;20436;-80
2022/05/04 07:46:51;;;;;;;6.57;5.93;;;;;;;;;;10462658;28;20419;-80
2022/05/04 07:51:53;;;;;;;8.10;6.30;;;;;;;;;;10462115;28;20737;-80
2022/05/04 07:56:56;;;;;;;8.02;6.00;;;;;;;;;;10462080;28;20433;-81
2022/05/04 08:07:17;;;;;;;8.90;6.35;;;;;;;;;;10461812;28;20851;-80
2022/05/04 08:12:20;;;;;;;8.30;6.30;;;;;;;;;;10462122;28;20410;-81
2022/05/04 08:17:22;;;;;;;7.38;6.00;;;;;;;;;;10461502;28;20403;-80
2022/05/04 08:22:23;;;;;;;9.85;5.82;;;;;;;;;;10461934;28;20904;-79
2022/05/04 08:27:28;;;;;;;10.63;5.63;;;;;;;;;;10462394;28;20513;-79
2022/05/04 08:32:31;;;;;;;11.63;6.30;;;;;;;;;;10462085;28;20751;-79
2022/05/04 08:37:34;;;;;;;7.30;5.63;;;;;;;;;;10461671;28;20413;-80
2022/05/04 08:42:40;;;;;;;8.20;5.82;;;;;;;;;;10460914;28;20405;-80
2022/05/04 08:47:44;;;;;;;10.13;6.25;;;;;;;;;;10460596;28;20421;-80
2022/05/04 08:52:53;;;;;;;10.63;6.80;;;;;;;;;;10459772;28;20395;-79
2022/05/04 08:57:56;;;;;;;8.85;6.85;;;;;;;;;;10459888;28;20398;-81
2022/05/04 09:02:58;;;;;;;9.07;7.20;;;;;;;;;;10459429;28;20617;-81
2022/05/04 09:08:00;;;;;;;9.83;6.50;;;;;;;;;;10460212;28;20513;-80
2022/05/04 09:13:04;;;;;;;11.33;5.83;;;;;;;;;;10459835;28;20500;-80
2022/05/04 09:18:08;;;;;;;9.00;6.35;;;;;;;;;;10459044;28;20409;-80
2022/05/04 09:23:11;;;;;;;9.70;6.13;;;;;;;;;;10458535;28;20970;-80
2022/05/04 09:28:16;;;;;;;10.80;5.90;;;;;;;;;;10458137;28;20422;-81
2022/05/04 09:33:19;;;;;;;9.37;6.57;;;;;;;;;;10458570;28;20483;-81
2022/05/04 09:49:14;;;;;;;9.07;6.43;;;;;;;;;;10457774;28;20542;-81
2022/05/04 09:54:18;;;;;;;6.90;5.55;;;;;;;;;;10457818;28;20872;-80
2022/05/04 09:59:22;;;;;;;9.27;6.13;;;;;;;;;;10457649;28;20731;-81
2022/05/04 10:04:24;;;;;;;8.82;6.70;;;;;;;;;;10457932;28;20414;-80
2022/05/04 10:09:26;;;;;;;8.30;6.90;;;;;;;;;;10457991;28;20517;-80
2022/05/04 10:14:30;;;;;;;7.87;6.50;;;;;;;;;;10457283;28;20565;-81
2022/05/04 10:19:41;;;;;;;9.23;6.35;;;;;;;;;;10457364;28;20484;-80
2022/05/04 10:24:45;;;;;;;7.72;6.32;;;;;;;;;;10456867;28;20499;-79
2022/05/04 10:35:28;;;;;;;10.13;6.57;;;;;;;;;;10457046;28;20474;-79
2022/05/04 10:40:33;;;;;;;9.40;5.77;;;;;;;;;;10460112;28;20446;-79
2022/05/04 10:45:39;;;;;;;7.18;5.65;;;;;;;;;;10464351;28;20504;-80
2022/05/04 10:50:51;;;;;;;7.13;6.03;;;;;;;;;;10464906;28;20888;-80
2022/05/04 10:56:02;;;;;;;6.28;5.55;;;;;;;;;;10464486;28;20496;-79
2022/05/04 11:01:07;;;;;;;5.25;3.83;;;;;;;;;;10464202;28;20538;-80
2022/05/04 11:06:10;;;;;;;4.07;3.35;;;;;;;;;;10464304;28;20487;-81
2022/05/04 11:11:12;;;;;;;3.43;2.87;;;;;;;;;;10463493;28;20405;-79
2022/05/04 11:16:15;;;;;;;3.92;3.00;;;;;;;;;;10460637;28;20887;-81
2022/05/04 11:21:19;;;;;;;6.07;3.50;;;;;;;;;;10450782;28;20412;-81
2022/05/04 11:26:22;;;;;;;4.15;3.10;;;;;;;;;;10445110;28;20425;-82
2022/05/04 11:31:25;;;;;;;3.33;3.10;;;;;;;;;;10451855;28;20411;-81
2022/05/04 11:36:27;;;;;;;3.83;3.05;;;;;;;;;;10448774;28;20495;-81
2022/05/04 11:41:29;;;;;;;3.92;3.38;;;;;;;;;;10456388;28;20404;-81
2022/05/04 11:46:32;;;;;;;4.85;3.60;;;;;;;;;;10451766;28;20780;-81
2022/05/04 11:51:35;;;;;;;4.32;3.55;;;;;;;;;;10455416;28;20408;-81
2022/05/04 11:56:37;;;;;;;4.07;3.38;;;;;;;;;;10455404;28;20415;-80
2022/05/04 12:01:41;;;;;;;4.60;3.55;;;;;;;;;;10450926;28;20753;-81
2022/05/04 12:06:44;;;;;;;4.13;3.70;;;;;;;;;;10444411;28;20420;-81
2022/05/04 12:11:46;;;;;;;4.50;3.53;;;;;;;;;;10452236;28;20402;-81
2022/05/04 12:16:50;;;;;;;6.80;4.22;;;;;;;;;;10446513;28;20460;-81
2022/05/04 12:21:53;;;;;;;8.57;4.27;;;;;;;;;;10449193;28;20402;-80
2022/05/04 12:26:55;;;;;;;5.75;4.47;;;;;;;;;;10443008;28;20452;-80
2022/05/04 12:37:20;;;;;;;7.10;5.38;;;;;;;;;;10444052;28;20473;-81
2022/05/04 12:42:21;;;;;;;6.63;5.82;;;;;;;;;;10449144;28;20808;-82
2022/05/04 12:47:25;;;;;;;7.82;6.93;;;;;;;;;;10445376;28;20809;-82
2022/05/04 12:52:27;;;;;;;8.40;5.63;;;;;;;;;;10441851;28;20419;-81
2022/05/04 12:57:28;;;;;;;7.00;6.00;;;;;;;;;;10447539;28;20398;-82
2022/05/04 13:02:31;;;;;;;6.43;5.25;;;;;;;;;;10443388;28;20517;-81
2022/05/04 13:07:34;;;;;;;5.97;5.07;;;;;;;;;;10450402;28;20479;-81
2022/05/04 13:12:37;;;;;;;6.70;5.30;;;;;;;;;;10457875;28;20428;-82
2022/05/04 13:17:40;;;;;;;6.07;4.23;;;;;;;;;;10451244;28;20712;-82
2022/05/04 13:22:42;;;;;;;5.73;4.77;;;;;;;;;;10453505;28;20411;-82
2022/05/04 13:27:44;;;;;;;5.05;4.57;;;;;;;;;;10455590;28;20898;-82
2022/05/04 13:32:48;;;;;;;7.40;4.45;;;;;;;;;;10461780;28;20427;-80
2022/05/04 13:37:50;;;;;;;5.38;4.88;;;;;;;;;;10466556;28;20482;-80
2022/05/04 13:42:53;;;;;;;5.85;4.53;;;;;;;;;;10459622;28;20421;-82
2022/05/04 13:47:57;;;;;;;4.60;4.20;;;;;;;;;;10462461;28;20427;-81
2022/05/04 13:53:16;;;;;;;4.83;4.20;;;;;;;;;;10463426;28;20432;-80
2022/05/04 13:58:22;;;;;;;4.40;4.10;;;;;;;;;;10465846;28;20399;-81
2022/05/04 14:03:29;;;;;;;7.60;4.60;;;;;;;;;;10467727;28;20394;-82
2022/05/04 14:08:33;;;;;;;4.60;4.20;;;;;;;;;;10468977;28;20429;-82
2022/05/04 14:13:37;;;;;;;5.53;4.60;;;;;;;;;;10469457;28;20474;-80
2022/05/04 14:18:43;;;;;;;5.20;4.70;;;;;;;;;;10481496;28;20397;-81
2022/05/04 14:23:47;;;;;;;6.50;4.90;;;;;;;;;;10473274;28;20425;-81
2022/05/04 14:28:49;;;;;;;8.23;4.80;;;;;;;;;;10463984;28;20510;-82
2022/05/04 14:33:52;;;;;;;5.60;5.00;;;;;;;;;;10467907;28;20400;-81
2022/05/04 14:38:55;;;;;;;5.73;4.83;;;;;;;;;;10467118;28;20409;-80
2022/05/04 14:43:56;;;;;;;5.10;4.63;;;;;;;;;;10466533;28;20403;-81
2022/05/04 14:49:00;;;;;;;5.47;4.95;;;;;;;;;;10461169;28;20787;-80
2022/05/04 14:54:01;;;;;;;6.72;4.95;;;;;;;;;;10461869;28;20412;-81
2022/05/04 14:59:03;;;;;;;5.45;4.60;;;;;;;;;;10463734;28;20406;-82
2022/05/04 15:09:26;;;;;;;5.05;4.13;;;;;;;;;;10474611;28;20408;-81
2022/05/04 15:14:29;;;;;;;5.85;4.57;;;;;;;;;;10481728;28;20504;-81
2022/05/04 15:19:34;;;;;;;6.63;4.70;;;;;;;;;;10482826;28;20415;-80
2022/05/04 15:24:36;;;;;;;6.03;3.97;;;;;;;;;;10481171;28;20496;-80
2022/05/04 15:29:37;;;;;;;5.65;4.40;;;;;;;;;;10468200;28;20413;-78
2022/05/04 15:34:41;;;;;;;4.13;3.72;;;;;;;;;;10480568;28;20396;-80
2022/05/04 15:39:42;;;;;;;5.90;3.60;;;;;;;;;;10475286;28;20481;-80
2022/05/04 15:44:44;;;;;;;4.97;3.60;;;;;;;;;;10470784;28;20404;-81
2022/05/04 15:49:47;;;;;;;5.03;3.63;;;;;;;;;;10478264;28;20541;-80
2022/05/04 15:54:49;;;;;;;5.63;4.07;;;;;;;;;;10479843;28;20398;-79
2022/05/04 15:59:51;;;;;;;5.70;3.80;;;;;;;;;;10465904;28;20513;-80
2022/05/04 16:04:55;;;;;;;5.65;3.90;;;;;;;;;;10464474;28;20969;-80
2022/05/04 16:09:56;;;;;;;4.15;3.72;;;;;;;;;;10481485;28;20430;-80
2022/05/04 16:14:58;;;;;;;4.35;3.63;;;;;;;;;;10485044;28;20403;-80
2022/05/04 16:25:21;;;;;;;4.05;3.22;;;;;;;;;;10470894;28;20424;-80
2022/05/04 16:30:24;;;;;;;5.50;3.43;;;;;;;;;;10457864;28;20518;-79
2022/05/04 16:35:27;;;;;;;5.15;3.70;;;;;;;;;;10462193;28;20410;-79
2022/05/04 16:40:29;;;;;;;5.35;4.00;;;;;;;;;;10459836;28;20901;-79
2022/05/04 16:45:31;;;;;;;4.20;3.78;;;;;;;;;;10464645;28;20426;-79
2022/05/04 16:50:34;;;;;;;4.20;3.80;;;;;;;;;;10463325;28;20794;-79
2022/05/04 16:55:36;;;;;;;5.32;3.50;;;;;;;;;;10461209;28;20414;-79
2022/05/04 17:00:38;;;;;;;4.18;3.20;;;;;;;;;;10463924;28;20406;-78
2022/05/04 17:05:41;;;;;;;4.00;3.57;;;;;;;;;;10463526;28;20426;-78
2022/05/04 17:10:43;;;;;;;6.00;3.45;;;;;;;;;;10462319;28;20749;-78
2022/05/04 17:15:45;;;;;;;4.80;4.30;;;;;;;;;;10468639;28;20502;-80
2022/05/04 17:20:48;;;;;;;7.43;4.68;;;;;;;;;;10460483;28;21149;-79
2022/05/04 17:25:50;;;;;;;7.00;5.10;;;;;;;;;;10469789;28;21292;-78
2022/05/04 17:30:51;;;;;;;5.90;5.30;;;;;;;;;;10469109;28;20412;-78
2022/05/04 17:41:14;;;;;;;8.95;5.90;;;;;;;;;;10461374;28;20403;-79
2022/05/04 17:46:16;;;;;;;8.43;5.13;;;;;;;;;;10462833;28;20430;-80
2022/05/04 17:51:19;;;;;;;7.00;4.70;;;;;;;;;;10460497;28;20981;-80
2022/05/04 17:56:22;;;;;;;4.72;3.85;;;;;;;;;;10465986;28;20408;-79
2022/05/04 18:03:33;;;;;;;9.00;4.53;;;;;;;;;;10457381;28;20674;-79
2022/05/04 18:06:47;;;;;;;5.63;4.43;;;;;;;;;;10450111;28;20430;-79
2022/05/04 18:11:49;;;;;;;4.57;3.95;;;;;;;;;;10453795;28;20421;-78
2022/05/04 18:16:51;;;;;;;8.57;4.30;;;;;;;;;;10453533;28;20497;-78
2022/05/04 18:21:54;;;;;;;5.80;4.20;;;;;;;;;;10454079;28;20416;-78
2022/05/04 18:26:56;;;;;;;5.40;4.03;;;;;;;;;;10452767;28;20412;-79
2022/05/04 18:31:58;;;;;;;7.10;4.63;;;;;;;;;;10454615;28;20414;-79
2022/05/04 18:37:01;;;;;;;7.13;5.07;;;;;;;;;;10456311;28;20412;-78
2022/05/04 18:42:03;;;;;;;7.55;4.50;;;;;;;;;;10453788;28;22004;-79
2022/05/04 18:47:05;;;;;;;6.32;4.47;;;;;;;;;;10450604;28;20427;-81
2022/05/04 18:52:09;;;;;;;6.75;4.55;;;;;;;;;;10456836;28;20482;-79
2022/05/04 18:57:11;;;;;;;6.37;4.83;;;;;;;;;;10463615;28;20418;-80
2022/05/04 19:02:13;;;;;;;6.55;4.90;;;;;;;;;;10457908;28;20415;-79
2022/05/04 19:07:16;;;;;;;5.63;4.63;;;;;;;;;;10472378;28;20907;-79
2022/05/04 19:12:18;;;;;;;6.28;4.53;;;;;;;;;;10470019;28;20500;-80
2022/05/04 19:17:20;;;;;;;6.87;4.50;;;;;;;;;;10471074;28;20456;-79
2022/05/04 19:22:24;;;;;;;7.63;4.63;;;;;;;;;;10470844;28;20509;-80
2022/05/04 19:27:26;;;;;;;4.80;4.30;;;;;;;;;;10462882;28;20786;-79
2022/05/04 19:32:29;;;;;;;7.50;4.68;;;;;;;;;;10466165;28;20416;-80
2022/05/04 19:37:33;;;;;;;6.53;5.03;;;;;;;;;;10462003;28;20410;-79
2022/05/04 19:42:35;;;;;;;6.60;5.22;;;;;;;;;;10461217;28;21170;-80
2022/05/04 19:47:37;;;;;;;7.20;5.50;;;;;;;;;;10466475;28;20414;-80
2022/05/04 19:52:41;;;;;;;7.88;5.88;;;;;;;;;;10449781;28;20491;-79
2022/05/04 19:57:42;;;;;;;7.35;5.55;;;;;;;;;;10459991;28;21025;-80
2022/05/04 20:02:44;;;;;;;7.40;5.15;;;;;;;;;;10455096;28;20487;-80
2022/05/04 20:07:48;;;;;;;8.10;5.90;;;;;;;;;;10455115;28;21003;-79
2022/05/04 20:12:49;;;;;;;7.13;5.85;;;;;;;;;;10455668;28;20426;-81
2022/05/04 20:17:51;;;;;;;7.60;5.73;;;;;;;;;;10457218;28;20404;-80
2022/05/04 20:22:55;;;;;;;6.72;5.43;;;;;;;;;;10463189;28;20413;-80
2022/05/04 20:27:57;;;;;;;6.70;5.30;;;;;;;;;;10463779;28;20500;-79
2022/05/04 20:32:58;;;;;;;8.25;5.93;;;;;;;;;;10464258;28;20417;-78
2022/05/04 20:43:21;;;;;;;7.50;5.90;;;;;;;;;;10457304;28;20854;-80
2022/05/04 20:48:23;;;;;;;6.90;6.15;;;;;;;;;;10448296;28;20984;-80
2022/05/04 20:53:27;;;;;;;6.37;5.77;;;;;;;;;;10468209;28;20402;-80
2022/05/04 20:58:31;;;;;;;6.83;5.70;;;;;;;;;;10456473;28;20492;-79
2022/05/04 21:03:34;;;;;;;6.43;5.30;;;;;;;;;;10470060;28;21531;-79
2022/05/04 21:08:37;;;;;;;6.13;5.53;;;;;;;;;;10473245;28;20433;-79
2022/05/04 21:13:39;;;;;;;7.07;5.47;;;;;;;;;;10465751;28;20440;-80
2022/05/04 21:18:41;;;;;;;5.93;5.10;;;;;;;;;;10461940;28;20450;-79
2022/05/04 21:23:44;;;;;;;5.88;5.32;;;;;;;;;;10467341;28;20414;-80
2022/05/04 21:28:47;;;;;;;6.07;5.05;;;;;;;;;;10469122;28;20420;-79
2022/05/04 21:33:48;;;;;;;5.40;4.90;;;;;;;;;;10472060;28;20940;-79
2022/05/04 21:38:51;;;;;;;7.05;5.40;;;;;;;;;;10465993;28;20989;-79
2022/05/04 21:43:53;;;;;;;5.90;5.30;;;;;;;;;;10460741;28;20420;-79
2022/05/04 21:48:55;;;;;;;5.90;5.40;;;;;;;;;;10459014;28;20414;-80
2022/05/04 21:53:58;;;;;;;6.00;5.40;;;;;;;;;;10452464;28;20515;-80
2022/05/04 21:59:00;;;;;;;6.18;5.57;;;;;;;;;;10459468;28;20399;-78
2022/05/04 22:04:03;;;;;;;6.65;5.97;;;;;;;;;;10459372;28;20490;-79
2022/05/04 22:09:07;;;;;;;7.40;5.80;;;;;;;;;;10461530;28;20456;-80
2022/05/04 22:14:09;;;;;;;6.60;6.00;;;;;;;;;;10454925;28;20903;-80
2022/05/04 22:19:12;;;;;;;6.85;6.22;;;;;;;;;;10460623;28;20459;-80
2022/05/04 22:24:15;;;;;;;7.63;6.83;;;;;;;;;;10460090;28;20764;-80
2022/05/04 22:29:17;;;;;;;7.57;6.78;;;;;;;;;;10459667;28;20505;-81
2022/05/04 22:34:19;;;;;;;7.88;7.03;;;;;;;;;;10458619;28;20810;-80
2022/05/04 22:39:22;;;;;;;8.07;7.03;;;;;;;;;;10468974;28;20432;-80
2022/05/04 22:44:24;;;;;;;7.80;7.00;;;;;;;;;;10468322;28;20394;-79
2022/05/04 22:49:26;;;;;;;8.82;7.40;;;;;;;;;;10469053;28;20414;-78
2022/05/04 22:54:32;;;;;;;7.75;6.97;;;;;;;;;;10467462;28;20398;-79
2022/05/04 22:59:34;;;;;;;9.45;7.43;;;;;;;;;;10467403;28;20406;-78
2022/05/04 23:04:36;;;;;;;7.68;6.97;;;;;;;;;;10465165;28;20493;-80
2022/05/04 23:09:39;;;;;;;7.50;6.80;;;;;;;;;;10472229;28;20430;-80
2022/05/04 23:14:41;;;;;;;7.45;6.75;;;;;;;;;;10462973;28;20970;-80
2022/05/04 23:19:43;;;;;;;7.37;6.67;;;;;;;;;;10464330;28;20479;-79
2022/05/04 23:24:46;;;;;;;8.45;7.22;;;;;;;;;;10464451;28;20501;-78
2022/05/04 23:29:47;;;;;;;7.47;6.78;;;;;;;;;;10462269;28;20430;-79
2022/05/04 23:34:49;;;;;;;7.77;6.97;;;;;;;;;;10464411;28;20399;-80
2022/05/04 23:39:53;;;;;;;9.30;7.60;;;;;;;;;;10462502;28;20400;-79
2022/05/04 23:44:55;;;;;;;8.10;7.30;;;;;;;;;;10461280;28;20413;-79
2022/05/04 23:49:57;;;;;;;8.70;7.10;;;;;;;;;;10461885;28;20418;-80
2022/05/04 23:55:02;;;;;;;8.30;6.80;;;;;;;;;;10462195;28;20398;-80
